sensor_id;sensor_type;location;lat;lon;timestamp;P1;durP1;ratioP1;P2;durP2;ratioP2
73276;SDS011;61501;43.316;5.372;2023-06-19T00:01:52;7.25;;;6.15;;
73276;SDS011;61501;43.316;5.372;2023-06-19T00:04:18;7.85;;;6.03;;
73276;SDS011;61501;43.316;5.372;2023-06-19T00:06:44;6.20;;;5.60;;
73276;SDS011;61501;43.316;5.372;2023-06-19T00:09:10;6.45;;;5.85;;
73276;SDS011;61501;43.316;5.372;2023-06-19T00:11:36;6.88;;;6.25;;
73276;SDS011;61501;43.316;5.372;2023-06-19T00:14:02;7.30;;;6.60;;
73276;SDS011;61501;43.316;5.372;2023-06-19T00:16:28;7.93;;;7.22;;
73276;SDS011;61501;43.316;5.372;2023-06-19T00:18:54;6.93;;;6.22;;
73276;SDS011;61501;43.316;5.372;2023-06-19T00:21:23;6.30;;;5.68;;
73276;SDS011;61501;43.316;5.372;2023-06-19T00:23:50;7.55;;;6.22;;
73276;SDS011;61501;43.316;5.372;2023-06-19T00:26:16;6.75;;;5.63;;
73276;SDS011;61501;43.316;5.372;2023-06-19T00:28:42;7.65;;;6.40;;
73276;SDS011;61501;43.316;5.372;2023-06-19T00:31:10;6.28;;;5.68;;
73276;SDS011;61501;43.316;5.372;2023-06-19T00:33:38;6.82;;;6.00;;
73276;SDS011;61501;43.316;5.372;2023-06-19T00:36:14;6.20;;;5.60;;
73276;SDS011;61501;43.316;5.372;2023-06-19T00:38:41;6.03;;;5.53;;
73276;SDS011;61501;43.316;5.372;2023-06-19T00:41:07;7.43;;;6.00;;
73276;SDS011;61501;43.316;5.372;2023-06-19T00:43:34;6.95;;;6.13;;
73276;SDS011;61501;43.316;5.372;2023-06-19T00:46:00;6.88;;;6.28;;
73276;SDS011;61501;43.316;5.372;2023-06-19T00:48:27;6.93;;;5.93;;
73276;SDS011;61501;43.316;5.372;2023-06-19T00:50:54;6.65;;;6.00;;
73276;SDS011;61501;43.316;5.372;2023-06-19T00:53:20;6.25;;;5.10;;
73276;SDS011;61501;43.316;5.372;2023-06-19T00:55:47;6.13;;;5.28;;
73276;SDS011;61501;43.316;5.372;2023-06-19T00:58:14;6.20;;;5.60;;
73276;SDS011;61501;43.316;5.372;2023-06-19T01:00:40;6.72;;;5.40;;
73276;SDS011;61501;43.316;5.372;2023-06-19T01:03:06;6.60;;;5.82;;
73276;SDS011;61501;43.316;5.372;2023-06-19T01:05:32;5.85;;;5.28;;
73276;SDS011;61501;43.316;5.372;2023-06-19T01:10:41;6.68;;;6.00;;
73276;SDS011;61501;43.316;5.372;2023-06-19T01:13:11;6.03;;;5.20;;
73276;SDS011;61501;43.316;5.372;2023-06-19T01:15:38;6.50;;;5.90;;
73276;SDS011;61501;43.316;5.372;2023-06-19T01:18:05;6.20;;;5.60;;
73276;SDS011;61501;43.316;5.372;2023-06-19T01:20:32;7.25;;;6.03;;
73276;SDS011;61501;43.316;5.372;2023-06-19T01:23:04;6.53;;;5.93;;
73276;SDS011;61501;43.316;5.372;2023-06-19T01:25:30;6.67;;;6.00;;
73276;SDS011;61501;43.316;5.372;2023-06-19T01:27:56;7.05;;;5.90;;
73276;SDS011;61501;43.316;5.372;2023-06-19T01:30:22;8.38;;;6.03;;
73276;SDS011;61501;43.316;5.372;2023-06-19T01:35:34;5.88;;;5.35;;
73276;SDS011;61501;43.316;5.372;2023-06-19T01:38:01;6.80;;;5.50;;
73276;SDS011;61501;43.316;5.372;2023-06-19T01:40:28;5.68;;;5.15;;
73276;SDS011;61501;43.316;5.372;2023-06-19T01:42:56;5.85;;;5.25;;
73276;SDS011;61501;43.316;5.372;2023-06-19T01:45:24;6.10;;;5.50;;
73276;SDS011;61501;43.316;5.372;2023-06-19T01:47:50;9.02;;;5.28;;
73276;SDS011;61501;43.316;5.372;2023-06-19T01:50:16;5.72;;;5.20;;
73276;SDS011;61501;43.316;5.372;2023-06-19T01:52:42;5.40;;;4.90;;
73276;SDS011;61501;43.316;5.372;2023-06-19T01:55:09;5.53;;;5.07;;
73276;SDS011;61501;43.316;5.372;2023-06-19T01:57:35;7.72;;;5.53;;
73276;SDS011;61501;43.316;5.372;2023-06-19T02:00:02;5.88;;;5.32;;
73276;SDS011;61501;43.316;5.372;2023-06-19T02:02:30;5.25;;;4.72;;
73276;SDS011;61501;43.316;5.372;2023-06-19T02:04:55;6.18;;;4.68;;
73276;SDS011;61501;43.316;5.372;2023-06-19T02:07:23;5.68;;;5.20;;
73276;SDS011;61501;43.316;5.372;2023-06-19T02:09:49;6.13;;;5.53;;
73276;SDS011;61501;43.316;5.372;2023-06-19T02:12:14;6.30;;;5.22;;
73276;SDS011;61501;43.316;5.372;2023-06-19T02:14:40;5.22;;;4.82;;
73276;SDS011;61501;43.316;5.372;2023-06-19T02:17:06;6.07;;;5.57;;
73276;SDS011;61501;43.316;5.372;2023-06-19T02:19:32;5.88;;;5.28;;
73276;SDS011;61501;43.316;5.372;2023-06-19T02:21:58;7.13;;;6.13;;
73276;SDS011;61501;43.316;5.372;2023-06-19T02:24:24;6.47;;;5.75;;
73276;SDS011;61501;43.316;5.372;2023-06-19T02:26:50;6.03;;;5.43;;
73276;SDS011;61501;43.316;5.372;2023-06-19T02:29:16;5.88;;;5.38;;
73276;SDS011;61501;43.316;5.372;2023-06-19T02:31:43;6.00;;;5.40;;
73276;SDS011;61501;43.316;5.372;2023-06-19T02:34:10;6.15;;;5.55;;
73276;SDS011;61501;43.316;5.372;2023-06-19T02:36:35;6.57;;;5.68;;
73276;SDS011;61501;43.316;5.372;2023-06-19T02:39:04;6.60;;;5.90;;
73276;SDS011;61501;43.316;5.372;2023-06-19T02:41:31;6.13;;;5.63;;
73276;SDS011;61501;43.316;5.372;2023-06-19T02:43:57;6.18;;;5.68;;
73276;SDS011;61501;43.316;5.372;2023-06-19T02:46:23;6.45;;;5.85;;
73276;SDS011;61501;43.316;5.372;2023-06-19T02:48:49;6.90;;;5.55;;
73276;SDS011;61501;43.316;5.372;2023-06-19T02:51:15;6.50;;;5.57;;
73276;SDS011;61501;43.316;5.372;2023-06-19T02:53:41;6.57;;;5.82;;
73276;SDS011;61501;43.316;5.372;2023-06-19T02:56:08;6.60;;;5.75;;
73276;SDS011;61501;43.316;5.372;2023-06-19T02:58:34;7.75;;;5.97;;
73276;SDS011;61501;43.316;5.372;2023-06-19T03:01:02;8.90;;;5.68;;
73276;SDS011;61501;43.316;5.372;2023-06-19T03:03:28;6.40;;;5.75;;
73276;SDS011;61501;43.316;5.372;2023-06-19T03:05:55;6.43;;;5.80;;
73276;SDS011;61501;43.316;5.372;2023-06-19T03:08:21;6.60;;;6.00;;
73276;SDS011;61501;43.316;5.372;2023-06-19T03:10:47;6.93;;;5.90;;
73276;SDS011;61501;43.316;5.372;2023-06-19T03:13:13;6.93;;;6.22;;
73276;SDS011;61501;43.316;5.372;2023-06-19T03:15:39;6.22;;;5.63;;
73276;SDS011;61501;43.316;5.372;2023-06-19T03:18:05;6.50;;;5.88;;
73276;SDS011;61501;43.316;5.372;2023-06-19T03:20:33;7.38;;;5.50;;
73276;SDS011;61501;43.316;5.372;2023-06-19T03:22:59;6.10;;;5.60;;
73276;SDS011;61501;43.316;5.372;2023-06-19T03:25:25;6.75;;;6.05;;
73276;SDS011;61501;43.316;5.372;2023-06-19T03:27:51;7.05;;;6.43;;
73276;SDS011;61501;43.316;5.372;2023-06-19T03:30:17;6.53;;;5.93;;
73276;SDS011;61501;43.316;5.372;2023-06-19T03:32:44;6.43;;;5.82;;
73276;SDS011;61501;43.316;5.372;2023-06-19T03:35:10;6.63;;;5.93;;
73276;SDS011;61501;43.316;5.372;2023-06-19T03:37:36;7.40;;;5.70;;
73276;SDS011;61501;43.316;5.372;2023-06-19T03:40:02;6.43;;;5.82;;
73276;SDS011;61501;43.316;5.372;2023-06-19T03:42:28;8.05;;;6.20;;
73276;SDS011;61501;43.316;5.372;2023-06-19T03:44:54;6.72;;;6.13;;
73276;SDS011;61501;43.316;5.372;2023-06-19T03:47:21;6.20;;;5.70;;
73276;SDS011;61501;43.316;5.372;2023-06-19T03:49:47;6.45;;;5.78;;
73276;SDS011;61501;43.316;5.372;2023-06-19T03:52:13;6.30;;;5.80;;
73276;SDS011;61501;43.316;5.372;2023-06-19T03:54:39;7.28;;;6.60;;
73276;SDS011;61501;43.316;5.372;2023-06-19T03:57:06;6.22;;;5.63;;
73276;SDS011;61501;43.316;5.372;2023-06-19T03:59:33;6.32;;;5.72;;
73276;SDS011;61501;43.316;5.372;2023-06-19T04:02:00;6.15;;;5.55;;
73276;SDS011;61501;43.316;5.372;2023-06-19T04:04:26;6.47;;;5.88;;
73276;SDS011;61501;43.316;5.372;2023-06-19T04:06:51;6.03;;;5.43;;
73276;SDS011;61501;43.316;5.372;2023-06-19T04:09:17;6.53;;;5.80;;
73276;SDS011;61501;43.316;5.372;2023-06-19T04:11:43;6.60;;;5.65;;
73276;SDS011;61501;43.316;5.372;2023-06-19T04:14:10;7.88;;;5.80;;
73276;SDS011;61501;43.316;5.372;2023-06-19T04:16:36;9.55;;;5.72;;
73276;SDS011;61501;43.316;5.372;2023-06-19T04:19:02;8.35;;;6.18;;
73276;SDS011;61501;43.316;5.372;2023-06-19T04:21:28;7.35;;;6.28;;
73276;SDS011;61501;43.316;5.372;2023-06-19T04:23:54;7.25;;;6.05;;
73276;SDS011;61501;43.316;5.372;2023-06-19T04:26:20;7.55;;;6.13;;
73276;SDS011;61501;43.316;5.372;2023-06-19T04:28:46;6.78;;;5.95;;
73276;SDS011;61501;43.316;5.372;2023-06-19T04:31:12;10.63;;;6.43;;
73276;SDS011;61501;43.316;5.372;2023-06-19T04:33:43;6.28;;;5.78;;
73276;SDS011;61501;43.316;5.372;2023-06-19T04:36:09;7.22;;;6.50;;
73276;SDS011;61501;43.316;5.372;2023-06-19T04:38:35;7.18;;;6.22;;
73276;SDS011;61501;43.316;5.372;2023-06-19T04:41:01;7.70;;;6.90;;
73276;SDS011;61501;43.316;5.372;2023-06-19T04:43:27;7.28;;;6.43;;
73276;SDS011;61501;43.316;5.372;2023-06-19T04:45:53;7.00;;;6.10;;
73276;SDS011;61501;43.316;5.372;2023-06-19T04:48:20;7.70;;;6.13;;
73276;SDS011;61501;43.316;5.372;2023-06-19T04:50:49;6.78;;;5.97;;
73276;SDS011;61501;43.316;5.372;2023-06-19T04:53:15;6.50;;;5.93;;
73276;SDS011;61501;43.316;5.372;2023-06-19T04:55:42;7.43;;;6.05;;
73276;SDS011;61501;43.316;5.372;2023-06-19T04:58:08;6.78;;;6.10;;
73276;SDS011;61501;43.316;5.372;2023-06-19T05:00:34;7.00;;;6.35;;
73276;SDS011;61501;43.316;5.372;2023-06-19T05:03:00;6.60;;;5.90;;
73276;SDS011;61501;43.316;5.372;2023-06-19T05:05:29;7.15;;;6.05;;
73276;SDS011;61501;43.316;5.372;2023-06-19T05:07:55;6.28;;;5.68;;
73276;SDS011;61501;43.316;5.372;2023-06-19T05:10:21;16.00;;;6.30;;
73276;SDS011;61501;43.316;5.372;2023-06-19T05:12:47;6.50;;;5.93;;
73276;SDS011;61501;43.316;5.372;2023-06-19T05:15:13;6.10;;;5.47;;
73276;SDS011;61501;43.316;5.372;2023-06-19T05:17:39;6.50;;;5.90;;
73276;SDS011;61501;43.316;5.372;2023-06-19T05:20:06;6.82;;;5.80;;
73276;SDS011;61501;43.316;5.372;2023-06-19T05:22:32;8.07;;;6.40;;
73276;SDS011;61501;43.316;5.372;2023-06-19T05:24:59;6.90;;;5.88;;
73276;SDS011;61501;43.316;5.372;2023-06-19T05:27:25;6.70;;;5.78;;
73276;SDS011;61501;43.316;5.372;2023-06-19T05:29:51;6.63;;;6.03;;
73276;SDS011;61501;43.316;5.372;2023-06-19T05:32:17;6.20;;;5.65;;
73276;SDS011;61501;43.316;5.372;2023-06-19T05:34:43;7.47;;;6.07;;
73276;SDS011;61501;43.316;5.372;2023-06-19T05:37:09;7.13;;;5.70;;
73276;SDS011;61501;43.316;5.372;2023-06-19T05:39:35;8.32;;;5.85;;
73276;SDS011;61501;43.316;5.372;2023-06-19T05:42:01;5.88;;;5.35;;
73276;SDS011;61501;43.316;5.372;2023-06-19T05:44:27;8.35;;;5.68;;
73276;SDS011;61501;43.316;5.372;2023-06-19T05:46:53;7.90;;;6.47;;
73276;SDS011;61501;43.316;5.372;2023-06-19T05:49:19;7.35;;;6.60;;
73276;SDS011;61501;43.316;5.372;2023-06-19T05:51:45;5.90;;;5.30;;
73276;SDS011;61501;43.316;5.372;2023-06-19T05:54:12;6.18;;;5.60;;
73276;SDS011;61501;43.316;5.372;2023-06-19T05:56:38;7.35;;;5.63;;
73276;SDS011;61501;43.316;5.372;2023-06-19T05:59:04;7.78;;;5.30;;
73276;SDS011;61501;43.316;5.372;2023-06-19T06:01:30;8.13;;;5.32;;
73276;SDS011;61501;43.316;5.372;2023-06-19T06:03:57;6.65;;;5.15;;
73276;SDS011;61501;43.316;5.372;2023-06-19T06:06:23;5.60;;;5.10;;
73276;SDS011;61501;43.316;5.372;2023-06-19T06:08:50;7.22;;;5.28;;
73276;SDS011;61501;43.316;5.372;2023-06-19T06:11:16;6.88;;;6.22;;
73276;SDS011;61501;43.316;5.372;2023-06-19T06:13:42;7.30;;;6.20;;
73276;SDS011;61501;43.316;5.372;2023-06-19T06:16:08;5.90;;;5.30;;
73276;SDS011;61501;43.316;5.372;2023-06-19T06:18:34;6.05;;;5.35;;
73276;SDS011;61501;43.316;5.372;2023-06-19T06:21:00;6.78;;;5.13;;
73276;SDS011;61501;43.316;5.372;2023-06-19T06:23:27;5.53;;;5.03;;
73276;SDS011;61501;43.316;5.372;2023-06-19T06:25:53;5.95;;;5.35;;
73276;SDS011;61501;43.316;5.372;2023-06-19T06:28:26;6.32;;;4.85;;
73276;SDS011;61501;43.316;5.372;2023-06-19T06:30:52;6.60;;;4.65;;
73276;SDS011;61501;43.316;5.372;2023-06-19T06:33:18;10.07;;;5.43;;
73276;SDS011;61501;43.316;5.372;2023-06-19T06:35:44;6.88;;;5.00;;
73276;SDS011;61501;43.316;5.372;2023-06-19T06:38:10;5.88;;;5.00;;
73276;SDS011;61501;43.316;5.372;2023-06-19T06:40:36;8.02;;;5.43;;
73276;SDS011;61501;43.316;5.372;2023-06-19T06:43:02;8.60;;;4.70;;
73276;SDS011;61501;43.316;5.372;2023-06-19T06:45:28;5.63;;;5.00;;
73276;SDS011;61501;43.316;5.372;2023-06-19T06:47:54;6.32;;;4.90;;
73276;SDS011;61501;43.316;5.372;2023-06-19T06:50:20;6.20;;;4.82;;
73276;SDS011;61501;43.316;5.372;2023-06-19T06:52:46;6.68;;;5.13;;
73276;SDS011;61501;43.316;5.372;2023-06-19T06:55:12;5.78;;;4.80;;
73276;SDS011;61501;43.316;5.372;2023-06-19T06:57:38;8.20;;;5.10;;
73276;SDS011;61501;43.316;5.372;2023-06-19T07:00:04;9.25;;;5.20;;
73276;SDS011;61501;43.316;5.372;2023-06-19T07:02:34;4.90;;;4.40;;
73276;SDS011;61501;43.316;5.372;2023-06-19T07:05:00;7.55;;;4.53;;
73276;SDS011;61501;43.316;5.372;2023-06-19T07:07:26;6.85;;;4.45;;
73276;SDS011;61501;43.316;5.372;2023-06-19T07:09:52;8.65;;;4.60;;
73276;SDS011;61501;43.316;5.372;2023-06-19T07:12:18;6.13;;;4.22;;
73276;SDS011;61501;43.316;5.372;2023-06-19T07:14:44;5.90;;;4.18;;
73276;SDS011;61501;43.316;5.372;2023-06-19T07:17:10;5.22;;;4.20;;
73276;SDS011;61501;43.316;5.372;2023-06-19T07:19:36;6.60;;;4.55;;
73276;SDS011;61501;43.316;5.372;2023-06-19T07:22:02;6.45;;;4.15;;
73276;SDS011;61501;43.316;5.372;2023-06-19T07:24:28;6.05;;;4.20;;
73276;SDS011;61501;43.316;5.372;2023-06-19T07:26:54;4.68;;;4.20;;
73276;SDS011;61501;43.316;5.372;2023-06-19T07:29:21;6.30;;;4.43;;
73276;SDS011;61501;43.316;5.372;2023-06-19T07:31:47;6.63;;;4.40;;
73276;SDS011;61501;43.316;5.372;2023-06-19T07:34:13;8.52;;;4.07;;
73276;SDS011;61501;43.316;5.372;2023-06-19T07:36:39;5.03;;;4.05;;
73276;SDS011;61501;43.316;5.372;2023-06-19T07:39:07;5.53;;;4.05;;
73276;SDS011;61501;43.316;5.372;2023-06-19T07:41:33;5.38;;;4.20;;
73276;SDS011;61501;43.316;5.372;2023-06-19T07:43:59;4.88;;;4.20;;
73276;SDS011;61501;43.316;5.372;2023-06-19T07:46:25;7.68;;;3.85;;
73276;SDS011;61501;43.316;5.372;2023-06-19T07:48:51;6.90;;;3.95;;
73276;SDS011;61501;43.316;5.372;2023-06-19T07:51:17;6.53;;;4.70;;
73276;SDS011;61501;43.316;5.372;2023-06-19T07:53:43;7.20;;;3.70;;
73276;SDS011;61501;43.316;5.372;2023-06-19T07:56:09;4.88;;;4.20;;
73276;SDS011;61501;43.316;5.372;2023-06-19T07:58:35;5.13;;;3.95;;
73276;SDS011;61501;43.316;5.372;2023-06-19T08:01:01;5.18;;;4.68;;
73276;SDS011;61501;43.316;5.372;2023-06-19T08:03:27;5.32;;;4.28;;
73276;SDS011;61501;43.316;5.372;2023-06-19T08:05:53;5.13;;;4.40;;
73276;SDS011;61501;43.316;5.372;2023-06-19T08:08:19;7.10;;;4.40;;
73276;SDS011;61501;43.316;5.372;2023-06-19T08:10:45;7.40;;;4.85;;
73276;SDS011;61501;43.316;5.372;2023-06-19T08:13:11;8.15;;;5.45;;
73276;SDS011;61501;43.316;5.372;2023-06-19T08:15:37;7.70;;;5.20;;
73276;SDS011;61501;43.316;5.372;2023-06-19T08:18:03;7.60;;;5.45;;
73276;SDS011;61501;43.316;5.372;2023-06-19T08:20:29;10.25;;;7.20;;
73276;SDS011;61501;43.316;5.372;2023-06-19T08:22:55;11.52;;;9.02;;
73276;SDS011;61501;43.316;5.372;2023-06-19T08:25:22;9.60;;;6.38;;
73276;SDS011;61501;43.316;5.372;2023-06-19T08:27:48;8.25;;;6.00;;
73276;SDS011;61501;43.316;5.372;2023-06-19T08:30:14;9.23;;;6.20;;
73276;SDS011;61501;43.316;5.372;2023-06-19T08:32:40;6.55;;;5.95;;
73276;SDS011;61501;43.316;5.372;2023-06-19T08:35:06;8.43;;;6.18;;
73276;SDS011;61501;43.316;5.372;2023-06-19T08:37:32;8.45;;;5.63;;
73276;SDS011;61501;43.316;5.372;2023-06-19T08:39:59;5.88;;;5.13;;
73276;SDS011;61501;43.316;5.372;2023-06-19T08:42:25;10.68;;;5.38;;
73276;SDS011;61501;43.316;5.372;2023-06-19T08:44:51;7.03;;;5.18;;
73276;SDS011;61501;43.316;5.372;2023-06-19T08:47:17;9.77;;;6.00;;
73276;SDS011;61501;43.316;5.372;2023-06-19T08:49:43;7.65;;;5.88;;
73276;SDS011;61501;43.316;5.372;2023-06-19T08:52:09;9.30;;;5.30;;
73276;SDS011;61501;43.316;5.372;2023-06-19T08:54:35;7.25;;;5.90;;
73276;SDS011;61501;43.316;5.372;2023-06-19T08:57:09;6.10;;;5.43;;
73276;SDS011;61501;43.316;5.372;2023-06-19T08:59:35;11.38;;;6.25;;
73276;SDS011;61501;43.316;5.372;2023-06-19T09:02:01;7.85;;;5.60;;
73276;SDS011;61501;43.316;5.372;2023-06-19T09:04:27;6.75;;;6.05;;
73276;SDS011;61501;43.316;5.372;2023-06-19T09:06:57;8.13;;;5.05;;
73276;SDS011;61501;43.316;5.372;2023-06-19T09:09:24;9.60;;;5.53;;
73276;SDS011;61501;43.316;5.372;2023-06-19T09:12:01;10.38;;;6.13;;
73276;SDS011;61501;43.316;5.372;2023-06-19T09:14:40;7.32;;;5.35;;
73276;SDS011;61501;43.316;5.372;2023-06-19T09:17:07;12.13;;;5.70;;
73276;SDS011;61501;43.316;5.372;2023-06-19T09:19:33;6.22;;;5.65;;
73276;SDS011;61501;43.316;5.372;2023-06-19T09:22:00;9.00;;;5.35;;
73276;SDS011;61501;43.316;5.372;2023-06-19T09:24:32;6.60;;;5.90;;
73276;SDS011;61501;43.316;5.372;2023-06-19T09:27:09;7.70;;;5.60;;
73276;SDS011;61501;43.316;5.372;2023-06-19T09:29:38;9.40;;;5.75;;
73276;SDS011;61501;43.316;5.372;2023-06-19T09:32:17;10.20;;;5.30;;
73276;SDS011;61501;43.316;5.372;2023-06-19T09:34:43;7.50;;;5.53;;
73276;SDS011;61501;43.316;5.372;2023-06-19T09:37:10;7.03;;;5.47;;
73276;SDS011;61501;43.316;5.372;2023-06-19T09:39:39;10.10;;;5.38;;
73276;SDS011;61501;43.316;5.372;2023-06-19T09:42:06;5.97;;;5.38;;
73276;SDS011;61501;43.316;5.372;2023-06-19T09:44:34;4.97;;;4.53;;
73276;SDS011;61501;43.316;5.372;2023-06-19T09:47:04;7.63;;;5.40;;
73276;SDS011;61501;43.316;5.372;2023-06-19T09:49:32;7.53;;;4.88;;
73276;SDS011;61501;43.316;5.372;2023-06-19T09:52:00;6.55;;;4.95;;
73276;SDS011;61501;43.316;5.372;2023-06-19T09:54:27;5.13;;;4.63;;
73276;SDS011;61501;43.316;5.372;2023-06-19T09:56:55;5.60;;;4.47;;
73276;SDS011;61501;43.316;5.372;2023-06-19T09:59:23;5.57;;;4.75;;
73276;SDS011;61501;43.316;5.372;2023-06-19T10:01:49;6.25;;;4.57;;
73276;SDS011;61501;43.316;5.372;2023-06-19T10:04:15;6.30;;;4.65;;
73276;SDS011;61501;43.316;5.372;2023-06-19T10:06:46;5.20;;;4.70;;
73276;SDS011;61501;43.316;5.372;2023-06-19T10:09:14;6.60;;;5.03;;
73276;SDS011;61501;43.316;5.372;2023-06-19T10:14:12;7.45;;;5.00;;
73276;SDS011;61501;43.316;5.372;2023-06-19T10:16:40;5.25;;;4.75;;
73276;SDS011;61501;43.316;5.372;2023-06-19T10:19:16;4.85;;;4.35;;
73276;SDS011;61501;43.316;5.372;2023-06-19T10:21:43;5.70;;;4.32;;
73276;SDS011;61501;43.316;5.372;2023-06-19T10:24:13;5.20;;;4.70;;
73276;SDS011;61501;43.316;5.372;2023-06-19T10:26:39;6.05;;;4.80;;
73276;SDS011;61501;43.316;5.372;2023-06-19T10:29:15;6.45;;;5.03;;
73276;SDS011;61501;43.316;5.372;2023-06-19T10:31:41;7.25;;;4.63;;
73276;SDS011;61501;43.316;5.372;2023-06-19T10:34:09;5.30;;;4.57;;
73276;SDS011;61501;43.316;5.372;2023-06-19T10:36:35;4.95;;;4.45;;
73276;SDS011;61501;43.316;5.372;2023-06-19T10:39:01;5.30;;;4.80;;
73276;SDS011;61501;43.316;5.372;2023-06-19T10:41:27;10.15;;;4.55;;
73276;SDS011;61501;43.316;5.372;2023-06-19T10:43:57;4.80;;;4.38;;
73276;SDS011;61501;43.316;5.372;2023-06-19T10:46:23;5.78;;;4.78;;
73276;SDS011;61501;43.316;5.372;2023-06-19T10:48:50;5.25;;;4.57;;
73276;SDS011;61501;43.316;5.372;2023-06-19T10:51:19;5.72;;;4.50;;
73276;SDS011;61501;43.316;5.372;2023-06-19T10:53:45;6.47;;;4.68;;
73276;SDS011;61501;43.316;5.372;2023-06-19T10:56:11;6.00;;;4.72;;
73276;SDS011;61501;43.316;5.372;2023-06-19T10:58:37;5.90;;;4.90;;
73276;SDS011;61501;43.316;5.372;2023-06-19T11:01:03;7.00;;;4.50;;
73276;SDS011;61501;43.316;5.372;2023-06-19T11:03:29;5.53;;;4.70;;
73276;SDS011;61501;43.316;5.372;2023-06-19T11:05:57;6.35;;;5.10;;
73276;SDS011;61501;43.316;5.372;2023-06-19T11:08:23;5.10;;;4.60;;
73276;SDS011;61501;43.316;5.372;2023-06-19T11:10:49;9.43;;;5.03;;
73276;SDS011;61501;43.316;5.372;2023-06-19T11:13:17;5.15;;;4.65;;
73276;SDS011;61501;43.316;5.372;2023-06-19T11:15:43;5.72;;;4.93;;
73276;SDS011;61501;43.316;5.372;2023-06-19T11:18:09;6.45;;;4.82;;
73276;SDS011;61501;43.316;5.372;2023-06-19T11:20:47;6.43;;;4.50;;
73276;SDS011;61501;43.316;5.372;2023-06-19T11:23:15;5.32;;;4.03;;
73276;SDS011;61501;43.316;5.372;2023-06-19T11:25:44;4.63;;;3.95;;
73276;SDS011;61501;43.316;5.372;2023-06-19T11:28:13;7.15;;;4.35;;
73276;SDS011;61501;43.316;5.372;2023-06-19T11:30:40;5.30;;;4.78;;
73276;SDS011;61501;43.316;5.372;2023-06-19T11:33:20;11.02;;;4.72;;
73276;SDS011;61501;43.316;5.372;2023-06-19T11:35:52;5.75;;;4.53;;
73276;SDS011;61501;43.316;5.372;2023-06-19T11:38:20;7.38;;;4.28;;
73276;SDS011;61501;43.316;5.372;2023-06-19T11:40:46;8.35;;;5.00;;
73276;SDS011;61501;43.316;5.372;2023-06-19T11:43:23;5.95;;;5.32;;
73276;SDS011;61501;43.316;5.372;2023-06-19T11:45:49;6.93;;;5.13;;
73276;SDS011;61501;43.316;5.372;2023-06-19T11:48:23;8.90;;;5.43;;
73276;SDS011;61501;43.316;5.372;2023-06-19T11:50:49;6.60;;;5.25;;
73276;SDS011;61501;43.316;5.372;2023-06-19T11:53:16;6.30;;;4.65;;
73276;SDS011;61501;43.316;5.372;2023-06-19T11:55:42;6.82;;;5.25;;
73276;SDS011;61501;43.316;5.372;2023-06-19T11:58:09;6.50;;;5.15;;
73276;SDS011;61501;43.316;5.372;2023-06-19T12:00:35;6.10;;;4.55;;
73276;SDS011;61501;43.316;5.372;2023-06-19T12:03:02;5.15;;;4.65;;
73276;SDS011;61501;43.316;5.372;2023-06-19T12:05:28;8.90;;;4.82;;
73276;SDS011;61501;43.316;5.372;2023-06-19T12:07:54;5.13;;;4.68;;
73276;SDS011;61501;43.316;5.372;2023-06-19T12:10:20;4.90;;;4.38;;
73276;SDS011;61501;43.316;5.372;2023-06-19T12:12:47;5.25;;;4.75;;
73276;SDS011;61501;43.316;5.372;2023-06-19T12:15:13;7.68;;;4.65;;
73276;SDS011;61501;43.316;5.372;2023-06-19T12:17:39;4.78;;;4.32;;
73276;SDS011;61501;43.316;5.372;2023-06-19T12:20:05;5.28;;;4.25;;
73276;SDS011;61501;43.316;5.372;2023-06-19T12:22:32;4.93;;;4.50;;
73276;SDS011;61501;43.316;5.372;2023-06-19T12:24:58;5.55;;;4.97;;
73276;SDS011;61501;43.316;5.372;2023-06-19T12:27:24;6.35;;;4.65;;
73276;SDS011;61501;43.316;5.372;2023-06-19T12:29:50;7.43;;;4.97;;
73276;SDS011;61501;43.316;5.372;2023-06-19T12:32:16;8.05;;;5.25;;
73276;SDS011;61501;43.316;5.372;2023-06-19T12:34:42;6.07;;;5.40;;
73276;SDS011;61501;43.316;5.372;2023-06-19T12:37:12;10.18;;;5.28;;
73276;SDS011;61501;43.316;5.372;2023-06-19T12:39:38;7.28;;;5.57;;
73276;SDS011;61501;43.316;5.372;2023-06-19T12:42:04;6.60;;;5.93;;
73276;SDS011;61501;43.316;5.372;2023-06-19T12:44:30;6.05;;;5.43;;
73276;SDS011;61501;43.316;5.372;2023-06-19T12:46:56;9.35;;;5.43;;
73276;SDS011;61501;43.316;5.372;2023-06-19T12:49:23;9.20;;;5.40;;
73276;SDS011;61501;43.316;5.372;2023-06-19T12:51:49;5.25;;;4.75;;
73276;SDS011;61501;43.316;5.372;2023-06-19T12:54:16;7.63;;;5.45;;
73276;SDS011;61501;43.316;5.372;2023-06-19T12:56:43;8.18;;;5.93;;
73276;SDS011;61501;43.316;5.372;2023-06-19T12:59:09;11.23;;;5.75;;
73276;SDS011;61501;43.316;5.372;2023-06-19T13:01:35;7.10;;;5.15;;
73276;SDS011;61501;43.316;5.372;2023-06-19T13:04:01;7.82;;;4.90;;
73276;SDS011;61501;43.316;5.372;2023-06-19T13:06:27;5.38;;;4.88;;
73276;SDS011;61501;43.316;5.372;2023-06-19T13:08:53;4.85;;;4.28;;
73276;SDS011;61501;43.316;5.372;2023-06-19T13:11:19;5.43;;;4.93;;
73276;SDS011;61501;43.316;5.372;2023-06-19T13:13:45;5.53;;;4.78;;
73276;SDS011;61501;43.316;5.372;2023-06-19T13:16:11;8.18;;;4.90;;
73276;SDS011;61501;43.316;5.372;2023-06-19T13:18:37;6.50;;;4.72;;
73276;SDS011;61501;43.316;5.372;2023-06-19T13:21:03;10.20;;;4.75;;
73276;SDS011;61501;43.316;5.372;2023-06-19T13:23:29;7.13;;;5.00;;
73276;SDS011;61501;43.316;5.372;2023-06-19T13:25:56;6.20;;;4.75;;
73276;SDS011;61501;43.316;5.372;2023-06-19T13:28:22;5.45;;;4.95;;
73276;SDS011;61501;43.316;5.372;2023-06-19T13:30:49;5.47;;;4.88;;
73276;SDS011;61501;43.316;5.372;2023-06-19T13:33:15;8.23;;;4.75;;
73276;SDS011;61501;43.316;5.372;2023-06-19T13:35:41;7.32;;;4.55;;
73276;SDS011;61501;43.316;5.372;2023-06-19T13:38:07;6.50;;;5.00;;
73276;SDS011;61501;43.316;5.372;2023-06-19T13:40:34;5.85;;;4.90;;
73276;SDS011;61501;43.316;5.372;2023-06-19T13:43:00;5.13;;;4.57;;
73276;SDS011;61501;43.316;5.372;2023-06-19T13:45:28;5.72;;;4.72;;
73276;SDS011;61501;43.316;5.372;2023-06-19T13:47:55;5.20;;;4.72;;
73276;SDS011;61501;43.316;5.372;2023-06-19T13:50:23;6.25;;;5.13;;
73276;SDS011;61501;43.316;5.372;2023-06-19T13:52:49;7.68;;;4.88;;
73276;SDS011;61501;43.316;5.372;2023-06-19T13:55:15;11.93;;;4.80;;
73276;SDS011;61501;43.316;5.372;2023-06-19T13:57:41;6.60;;;5.03;;
73276;SDS011;61501;43.316;5.372;2023-06-19T14:00:08;8.18;;;5.20;;
73276;SDS011;61501;43.316;5.372;2023-06-19T14:02:35;6.38;;;4.85;;
73276;SDS011;61501;43.316;5.372;2023-06-19T14:05:03;8.95;;;5.35;;
73276;SDS011;61501;43.316;5.372;2023-06-19T14:07:29;6.55;;;5.18;;
73276;SDS011;61501;43.316;5.372;2023-06-19T14:09:55;10.10;;;5.78;;
73276;SDS011;61501;43.316;5.372;2023-06-19T14:12:21;11.98;;;5.88;;
73276;SDS011;61501;43.316;5.372;2023-06-19T14:14:47;7.53;;;5.45;;
73276;SDS011;61501;43.316;5.372;2023-06-19T14:17:13;8.80;;;5.53;;
73276;SDS011;61501;43.316;5.372;2023-06-19T14:19:39;6.70;;;5.35;;
73276;SDS011;61501;43.316;5.372;2023-06-19T14:22:05;7.22;;;5.78;;
73276;SDS011;61501;43.316;5.372;2023-06-19T14:24:31;9.48;;;5.60;;
73276;SDS011;61501;43.316;5.372;2023-06-19T14:26:57;9.25;;;5.82;;
73276;SDS011;61501;43.316;5.372;2023-06-19T14:29:23;5.65;;;5.07;;
73276;SDS011;61501;43.316;5.372;2023-06-19T14:31:53;10.98;;;5.25;;
73276;SDS011;61501;43.316;5.372;2023-06-19T14:34:19;8.93;;;5.57;;
73276;SDS011;61501;43.316;5.372;2023-06-19T14:36:45;6.18;;;4.60;;
73276;SDS011;61501;43.316;5.372;2023-06-19T14:39:11;7.38;;;4.95;;
73276;SDS011;61501;43.316;5.372;2023-06-19T14:41:38;6.55;;;5.20;;
73276;SDS011;61501;43.316;5.372;2023-06-19T14:44:04;10.50;;;5.07;;
73276;SDS011;61501;43.316;5.372;2023-06-19T14:46:33;8.57;;;5.22;;
73276;SDS011;61501;43.316;5.372;2023-06-19T14:49:04;13.07;;;5.82;;
73276;SDS011;61501;43.316;5.372;2023-06-19T14:51:30;6.65;;;4.72;;
73276;SDS011;61501;43.316;5.372;2023-06-19T14:53:56;7.28;;;5.22;;